createdAt,value
2018-11-23T00:01:18.490Z,958.97
2018-11-23T00:03:44.774Z,959.03
2018-11-23T00:06:11.123Z,958.96
2018-11-23T00:08:37.414Z,958.99
2018-11-23T00:11:03.735Z,959.02
2018-11-23T00:13:30.048Z,959.02
2018-11-23T00:15:56.355Z,959.05
2018-11-23T00:18:22.684Z,959.07
2018-11-23T00:20:49.037Z,959.05
2018-11-23T00:23:15.358Z,959.06
2018-11-23T00:25:42.194Z,959.10
2018-11-23T00:28:07.977Z,959.13
2018-11-23T00:30:34.281Z,959.15
2018-11-23T00:33:00.612Z,959.19
2018-11-23T00:35:26.923Z,959.20
2018-11-23T00:37:53.269Z,959.23
2018-11-23T00:40:19.564Z,959.19
2018-11-23T00:42:45.850Z,959.19
2018-11-23T00:45:12.161Z,959.29
2018-11-23T00:47:38.500Z,959.26
2018-11-23T00:50:04.798Z,959.26
2018-11-23T00:52:31.113Z,959.29
2018-11-23T00:54:57.445Z,959.33
2018-11-23T00:57:23.769Z,959.35
2018-11-23T00:59:50.070Z,959.38
2018-11-23T01:02:16.369Z,959.35
2018-11-23T01:04:42.695Z,959.38
2018-11-23T01:07:08.980Z,959.39
2018-11-23T01:09:35.286Z,959.38
2018-11-23T01:12:01.657Z,959.38
2018-11-23T01:14:27.946Z,959.39
2018-11-23T01:16:54.267Z,959.45
2018-11-23T01:19:20.564Z,959.42
2018-11-23T01:21:46.877Z,959.52
2018-11-23T01:24:13.175Z,959.42
2018-11-23T01:26:39.497Z,959.44
2018-11-23T01:29:05.812Z,959.46
2018-11-23T01:31:32.096Z,959.40
2018-11-23T01:33:58.424Z,959.35
2018-11-23T01:36:24.741Z,959.38
2018-11-23T01:38:51.041Z,959.40
2018-11-23T01:41:17.371Z,959.38
2018-11-23T01:43:43.670Z,959.32
2018-11-23T01:46:09.979Z,959.38
2018-11-23T01:48:36.333Z,959.37
2018-11-23T01:51:02.663Z,959.34
2018-11-23T01:53:28.970Z,959.40
2018-11-23T01:55:55.286Z,959.40
2018-11-23T01:58:21.594Z,959.43
2018-11-23T02:00:47.902Z,959.43
2018-11-23T02:03:14.197Z,959.45
2018-11-23T02:05:40.497Z,959.47
2018-11-23T02:08:06.818Z,959.35
2018-11-23T02:10:33.121Z,959.42
2018-11-23T02:12:59.459Z,959.38
2018-11-23T02:15:25.747Z,959.38
2018-11-23T02:17:52.067Z,959.35
2018-11-23T02:20:18.375Z,959.41
2018-11-23T02:22:44.688Z,959.42
2018-11-23T02:25:10.990Z,959.45
2018-11-23T02:27:37.318Z,959.48
2018-11-23T02:30:07.194Z,959.44
2018-11-23T02:32:33.515Z,959.44
2018-11-23T02:34:59.822Z,959.49
2018-11-23T02:37:26.138Z,959.55
2018-11-23T02:39:52.471Z,959.52
2018-11-23T02:42:18.785Z,959.50
2018-11-23T02:44:45.068Z,959.50
2018-11-23T02:47:11.392Z,959.52
2018-11-23T02:49:37.739Z,959.52
2018-11-23T02:52:04.097Z,959.56
2018-11-23T02:54:30.401Z,959.58
2018-11-23T02:56:56.724Z,959.57
2018-11-23T02:59:23.999Z,959.61
2018-11-23T03:01:49.394Z,959.56
2018-11-23T03:04:15.698Z,959.60
2018-11-23T03:06:41.996Z,959.55
2018-11-23T03:09:08.305Z,959.58
2018-11-23T03:11:34.612Z,959.66
2018-11-23T03:14:00.923Z,959.72
2018-11-23T03:16:27.218Z,959.69
2018-11-23T03:18:53.523Z,959.68
2018-11-23T03:21:19.836Z,959.73
2018-11-23T03:23:46.125Z,959.82
2018-11-23T03:26:12.438Z,959.82
2018-11-23T03:28:38.739Z,959.80
2018-11-23T03:31:12.057Z,959.79
2018-11-23T03:33:31.340Z,959.83
2018-11-23T03:35:57.642Z,959.83
2018-11-23T03:38:23.955Z,959.78
2018-11-23T03:40:50.267Z,959.80
2018-11-23T03:43:16.570Z,959.78
2018-11-23T03:45:42.873Z,959.78
2018-11-23T03:48:09.156Z,959.79
2018-11-23T03:50:35.468Z,959.78
2018-11-23T03:53:01.785Z,959.77
2018-11-23T03:55:28.102Z,959.73
2018-11-23T03:57:56.478Z,959.72
2018-11-23T04:00:20.733Z,959.79
2018-11-23T04:02:47.043Z,959.79
2018-11-23T04:05:13.335Z,959.75
2018-11-23T04:07:39.636Z,959.80
2018-11-23T04:10:05.982Z,959.78
2018-11-23T04:12:32.274Z,959.81
2018-11-23T04:14:58.595Z,959.80
2018-11-23T04:17:24.910Z,959.90
2018-11-23T04:19:51.202Z,959.87
2018-11-23T04:22:17.530Z,959.94
2018-11-23T04:24:43.825Z,959.92
2018-11-23T04:27:10.107Z,959.87
2018-11-23T04:29:36.403Z,959.83
2018-11-23T04:32:02.707Z,959.87
2018-11-23T04:34:29.005Z,959.84
2018-11-23T04:36:55.336Z,959.85
2018-11-23T04:39:21.633Z,959.87
2018-11-23T04:41:47.948Z,959.81
2018-11-23T04:44:14.259Z,959.82
2018-11-23T04:46:40.622Z,959.81
2018-11-23T04:49:06.925Z,959.84
2018-11-23T04:51:33.298Z,959.84
2018-11-23T04:53:59.661Z,959.88
2018-11-23T04:56:25.949Z,959.93
2018-11-23T04:58:52.244Z,959.92
2018-11-23T05:01:18.566Z,959.97
2018-11-23T05:03:44.897Z,960.06
2018-11-23T05:06:11.218Z,960.07
2018-11-23T05:08:37.577Z,960.06
2018-11-23T05:11:03.898Z,960.07
2018-11-23T05:13:30.212Z,960.04
2018-11-23T05:15:56.519Z,960.02
2018-11-23T05:18:22.886Z,960.06
2018-11-23T05:20:49.196Z,960.20
2018-11-23T05:23:15.549Z,960.22
2018-11-23T05:25:41.875Z,960.27
2018-11-23T05:28:08.167Z,960.20
2018-11-23T05:30:34.470Z,960.18
2018-11-23T05:33:00.791Z,960.19
2018-11-23T05:35:27.086Z,960.18
2018-11-23T05:37:53.383Z,960.17
2018-11-23T05:40:19.696Z,960.18
2018-11-23T05:42:46.017Z,960.21
2018-11-23T05:45:12.334Z,960.21
2018-11-23T05:47:38.657Z,960.28
2018-11-23T05:50:04.947Z,960.31
2018-11-23T05:52:31.232Z,960.36
2018-11-23T05:54:57.555Z,960.34
2018-11-23T05:57:23.868Z,960.32
2018-11-23T05:59:50.227Z,960.38
2018-11-23T06:02:16.472Z,960.33
2018-11-23T06:04:42.805Z,960.41
2018-11-23T06:07:09.113Z,960.42
2018-11-23T06:09:35.475Z,960.45
2018-11-23T06:12:01.797Z,960.48
2018-11-23T06:14:28.120Z,960.52
2018-11-23T06:16:54.377Z,960.49
2018-11-23T06:19:20.698Z,960.49
2018-11-23T06:21:47.019Z,960.51
2018-11-23T06:24:13.306Z,960.52
2018-11-23T06:26:39.664Z,960.55
2018-11-23T06:29:05.964Z,960.62
2018-11-23T06:31:32.286Z,960.75
2018-11-23T06:33:58.618Z,960.77
2018-11-23T06:36:24.994Z,960.83
2018-11-23T06:38:51.285Z,960.90
2018-11-23T06:41:17.579Z,960.83
2018-11-23T06:43:43.892Z,960.91
2018-11-23T06:46:10.168Z,960.94
2018-11-23T06:48:36.499Z,960.97
2018-11-23T06:51:02.792Z,961.00
2018-11-23T06:53:29.081Z,961.03
2018-11-23T06:55:55.393Z,960.97
2018-11-23T06:58:21.715Z,961.07
2018-11-23T07:00:48.013Z,961.04
2018-11-23T07:05:58.543Z,961.08
2018-11-23T07:08:24.822Z,961.06
2018-11-23T07:10:51.109Z,961.03
2018-11-23T07:13:17.443Z,961.04
2018-11-23T07:15:43.767Z,960.99
2018-11-23T07:18:10.067Z,961.08
2018-11-23T07:20:36.361Z,961.08
2018-11-23T07:23:02.690Z,961.12
2018-11-23T07:25:28.977Z,961.16
2018-11-23T07:27:55.361Z,961.26
2018-11-23T07:30:21.702Z,961.25
2018-11-23T07:32:48.036Z,961.28
2018-11-23T07:35:14.373Z,961.32
2018-11-23T07:37:40.670Z,961.30
2018-11-23T07:40:06.984Z,961.37
2018-11-23T07:42:33.291Z,961.38
2018-11-23T07:44:59.598Z,961.32
2018-11-23T07:47:25.934Z,961.33
2018-11-23T07:49:52.254Z,961.33
2018-11-23T07:52:18.566Z,961.37
2018-11-23T07:54:44.858Z,961.37
2018-11-23T07:57:11.229Z,961.43
2018-11-23T07:59:37.556Z,961.40
2018-11-23T08:02:03.844Z,961.41
2018-11-23T08:04:30.190Z,961.45
2018-11-23T08:06:56.488Z,961.46
2018-11-23T08:09:22.803Z,961.47
2018-11-23T08:11:49.104Z,961.55
2018-11-23T08:14:15.425Z,961.55
2018-11-23T08:16:41.727Z,961.56
2018-11-23T08:19:08.025Z,961.66
2018-11-23T08:21:34.352Z,961.66
2018-11-23T08:24:00.665Z,961.62
2018-11-23T08:26:27.052Z,961.67
2018-11-23T08:28:53.352Z,961.64
2018-11-23T08:31:19.643Z,961.69
2018-11-23T08:33:45.953Z,961.69
2018-11-23T08:36:12.286Z,961.67
2018-11-23T08:38:38.602Z,961.66
2018-11-23T08:41:05.511Z,961.66
2018-11-23T08:43:31.191Z,961.60
2018-11-23T08:45:57.480Z,961.64
2018-11-23T08:48:23.783Z,961.63
2018-11-23T08:50:50.205Z,961.62
2018-11-23T08:53:16.528Z,961.62
2018-11-23T08:55:42.832Z,961.63
2018-11-23T08:58:09.143Z,961.63
2018-11-23T09:00:35.442Z,961.58
2018-11-23T09:03:01.750Z,961.55
2018-11-23T09:05:28.068Z,961.55
2018-11-23T09:07:54.408Z,961.61
2018-11-23T09:10:20.713Z,961.62
2018-11-23T09:12:47.000Z,961.60
2018-11-23T09:15:13.295Z,961.49
2018-11-23T09:17:39.629Z,961.47
2018-11-23T09:20:05.965Z,961.47
2018-11-23T09:22:32.296Z,961.47
2018-11-23T09:24:58.610Z,961.47
2018-11-23T09:27:24.905Z,961.45
2018-11-23T09:29:51.213Z,961.39
2018-11-23T09:32:17.534Z,961.41
2018-11-23T09:34:43.841Z,961.36
2018-11-23T09:37:10.150Z,961.41
2018-11-23T09:39:36.594Z,961.43
2018-11-23T09:42:02.731Z,961.41
2018-11-23T09:44:29.060Z,961.44
2018-11-23T09:46:55.387Z,961.36
2018-11-23T09:49:21.755Z,961.39
2018-11-23T09:51:48.000Z,961.44
2018-11-23T09:54:14.327Z,961.39
2018-11-23T09:56:40.629Z,961.37
2018-11-23T09:59:06.945Z,961.39
2018-11-23T10:01:33.268Z,961.40
2018-11-23T10:03:59.554Z,961.40
2018-11-23T10:06:25.879Z,961.38
2018-11-23T10:08:52.143Z,961.38
2018-11-23T10:11:18.434Z,961.38
2018-11-23T10:13:44.762Z,961.36
2018-11-23T10:16:11.038Z,961.33
2018-11-23T10:18:37.370Z,961.28
2018-11-23T10:21:03.657Z,961.31
2018-11-23T10:23:30.004Z,961.21
2018-11-23T10:25:56.279Z,961.34
2018-11-23T10:28:22.574Z,961.28
2018-11-23T10:30:48.883Z,961.23
2018-11-23T10:33:15.183Z,961.23
2018-11-23T10:35:41.528Z,961.28
2018-11-23T10:38:07.793Z,961.27
2018-11-23T10:40:34.090Z,961.23
2018-11-23T10:43:00.403Z,961.17
2018-11-23T10:45:26.719Z,961.20
2018-11-23T10:47:53.043Z,961.21
2018-11-23T10:50:19.350Z,961.24
2018-11-23T10:52:45.656Z,961.23
2018-11-23T10:55:11.946Z,961.27
2018-11-23T10:57:38.270Z,961.19
2018-11-23T11:00:07.715Z,961.20
2018-11-23T11:02:34.013Z,961.20
2018-11-23T11:05:00.379Z,961.18
2018-11-23T11:07:26.682Z,961.17
2018-11-23T11:09:53.152Z,961.16
2018-11-23T11:12:19.449Z,961.10
2018-11-23T11:14:45.745Z,961.12
2018-11-23T11:17:12.037Z,960.98
2018-11-23T11:19:38.336Z,961.04
2018-11-23T11:22:04.624Z,961.01
2018-11-23T11:24:30.958Z,960.98
2018-11-23T11:26:57.261Z,960.98
2018-11-23T11:29:23.581Z,961.02
2018-11-23T11:31:49.869Z,960.98
2018-11-23T11:34:16.150Z,960.97
2018-11-23T11:36:42.515Z,960.95
2018-11-23T11:39:08.861Z,960.92
2018-11-23T11:41:35.213Z,960.90
2018-11-23T11:44:01.556Z,960.92
2018-11-23T11:46:27.843Z,960.99
2018-11-23T11:48:54.150Z,960.93
2018-11-23T11:51:20.474Z,960.92
2018-11-23T11:53:46.768Z,960.95
2018-11-23T11:56:13.073Z,960.94
2018-11-23T11:58:39.382Z,960.92
2018-11-23T12:01:05.699Z,960.86
2018-11-23T12:03:32.020Z,960.88
2018-11-23T12:05:58.321Z,960.92
2018-11-23T12:08:24.622Z,960.84
2018-11-23T12:10:50.936Z,960.82
2018-11-23T12:13:17.255Z,960.90
2018-11-23T12:15:43.558Z,960.91
2018-11-23T12:18:09.845Z,960.87
2018-11-23T12:20:36.142Z,960.89
2018-11-23T12:23:02.467Z,960.99
2018-11-23T12:25:28.752Z,960.95
2018-11-23T12:27:55.049Z,960.96
2018-11-23T12:30:21.375Z,960.94
2018-11-23T12:32:47.681Z,960.98
2018-11-23T12:35:14.006Z,961.01
2018-11-23T12:37:40.325Z,961.01
2018-11-23T12:40:06.638Z,960.96
2018-11-23T12:42:32.945Z,960.98
2018-11-23T12:44:59.245Z,960.99
2018-11-23T12:47:25.551Z,961.03
2018-11-23T12:49:51.849Z,960.95
2018-11-23T12:52:18.169Z,960.96
2018-11-23T12:54:44.523Z,960.96
2018-11-23T12:57:10.829Z,960.96
2018-11-23T12:59:37.156Z,961.00
2018-11-23T13:02:03.476Z,960.98
2018-11-23T13:04:29.793Z,960.98
2018-11-23T13:06:56.118Z,960.97
2018-11-23T13:09:22.460Z,960.93
2018-11-23T13:11:48.747Z,960.98
2018-11-23T13:14:15.073Z,960.97
2018-11-23T13:16:41.358Z,961.02
2018-11-23T13:19:07.689Z,960.93
2018-11-23T13:21:33.980Z,960.83
2018-11-23T13:24:00.301Z,960.89
2018-11-23T13:26:26.666Z,960.80
2018-11-23T13:28:52.962Z,960.92
2018-11-23T13:31:19.259Z,960.86
2018-11-23T13:33:45.623Z,960.88
2018-11-23T13:36:11.960Z,960.85
2018-11-23T13:38:38.238Z,960.86
2018-11-23T13:41:04.518Z,960.80
2018-11-23T13:43:30.821Z,960.75
2018-11-23T13:45:57.121Z,960.73
2018-11-23T13:48:23.434Z,960.73
2018-11-23T13:50:49.721Z,960.71
2018-11-23T13:53:16.051Z,960.70
2018-11-23T13:55:42.364Z,960.73
2018-11-23T13:58:08.653Z,960.67
2018-11-23T14:00:34.977Z,960.75
2018-11-23T14:03:01.269Z,960.72
2018-11-23T14:05:27.589Z,960.79
2018-11-23T14:07:53.909Z,960.77
2018-11-23T14:10:20.238Z,960.76
2018-11-23T14:12:46.524Z,960.74
2018-11-23T14:15:12.840Z,960.78
2018-11-23T14:17:39.152Z,960.82
2018-11-23T14:20:05.437Z,960.90
2018-11-23T14:22:31.745Z,960.93
2018-11-23T14:24:58.075Z,960.92
2018-11-23T14:27:24.389Z,960.92
2018-11-23T14:29:50.773Z,960.89
2018-11-23T14:32:17.105Z,960.85
2018-11-23T14:34:43.418Z,960.79
2018-11-23T14:37:09.795Z,960.80
2018-11-23T14:39:36.131Z,960.81
2018-11-23T14:42:02.451Z,960.77
2018-11-23T14:44:28.811Z,960.84
2018-11-23T14:46:55.188Z,960.88
2018-11-23T14:49:21.486Z,960.89
2018-11-23T14:51:47.813Z,960.91
2018-11-23T14:54:14.138Z,960.98
2018-11-23T14:56:40.456Z,960.98
2018-11-23T14:59:06.745Z,960.98
2018-11-23T15:01:33.069Z,960.97
2018-11-23T15:03:59.379Z,960.94
2018-11-23T15:06:25.724Z,960.94
2018-11-23T15:08:52.013Z,961.01
2018-11-23T15:11:18.342Z,961.04
2018-11-23T15:13:44.697Z,961.08
2018-11-23T15:16:11.028Z,961.05
2018-11-23T15:18:37.340Z,961.07
2018-11-23T15:21:03.645Z,961.14
2018-11-23T15:23:29.952Z,961.18
2018-11-23T15:25:56.274Z,961.11
2018-11-23T15:28:22.636Z,961.17
2018-11-23T15:30:48.919Z,961.17
2018-11-23T15:33:15.247Z,961.16
2018-11-23T15:35:41.554Z,961.30
2018-11-23T15:38:10.285Z,961.31
2018-11-23T15:40:34.186Z,961.25
2018-11-23T15:43:00.508Z,961.28
2018-11-23T15:45:26.821Z,961.27
2018-11-23T15:47:53.109Z,961.29
2018-11-23T15:50:19.427Z,961.30
2018-11-23T15:52:45.739Z,961.21
2018-11-23T15:55:12.038Z,961.23
2018-11-23T15:57:38.379Z,961.18
2018-11-23T16:00:04.686Z,961.22
2018-11-23T16:02:31.004Z,961.25
2018-11-23T16:04:57.326Z,961.31
2018-11-23T16:07:23.636Z,961.41
2018-11-23T16:09:49.960Z,961.38
2018-11-23T16:12:16.276Z,961.40
2018-11-23T16:14:42.560Z,961.55
2018-11-23T16:17:08.851Z,961.50
2018-11-23T16:19:35.155Z,961.51
2018-11-23T16:22:01.481Z,961.47
2018-11-23T16:24:27.800Z,961.47
2018-11-23T16:26:54.167Z,961.46
2018-11-23T16:29:20.515Z,961.50
2018-11-23T16:31:46.803Z,961.52
2018-11-23T16:34:13.180Z,961.56
2018-11-23T16:36:39.557Z,961.51
2018-11-23T16:39:05.893Z,961.53
2018-11-23T16:41:32.125Z,961.53
2018-11-23T16:43:58.425Z,961.53
2018-11-23T16:46:24.746Z,961.58
2018-11-23T16:48:51.084Z,961.56
2018-11-23T16:51:17.379Z,961.58
2018-11-23T16:53:43.726Z,961.62
2018-11-23T16:56:10.036Z,961.63
2018-11-23T16:58:36.391Z,961.72
2018-11-23T17:01:02.695Z,961.65
2018-11-23T17:03:28.984Z,961.62
2018-11-23T17:05:55.277Z,961.59
2018-11-23T17:08:21.584Z,961.64
2018-11-23T17:10:47.903Z,961.58
2018-11-23T17:13:14.208Z,961.60
2018-11-23T17:15:40.533Z,961.59
2018-11-23T17:18:06.837Z,961.60
2018-11-23T17:20:33.146Z,961.59
2018-11-23T17:22:59.445Z,961.63
2018-11-23T17:25:25.734Z,961.55
2018-11-23T17:27:52.082Z,961.64
2018-11-23T17:30:19.662Z,961.64
2018-11-23T17:32:45.944Z,961.63
2018-11-23T17:35:12.340Z,961.59
2018-11-23T17:37:38.628Z,961.68
2018-11-23T17:40:04.938Z,961.69
2018-11-23T17:42:31.249Z,961.77
2018-11-23T17:44:57.557Z,961.80
2018-11-23T17:47:23.872Z,961.80
2018-11-23T17:49:50.200Z,961.78
2018-11-23T17:52:16.567Z,961.78
2018-11-23T17:54:42.869Z,961.74
2018-11-23T17:57:09.183Z,961.80
2018-11-23T17:59:35.459Z,961.77
2018-11-23T18:02:01.765Z,961.79
2018-11-23T18:04:28.081Z,961.81
2018-11-23T18:06:54.380Z,961.84
2018-11-23T18:09:20.706Z,961.86
2018-11-23T18:11:47.013Z,961.86
2018-11-23T18:14:13.327Z,961.86
2018-11-23T18:16:39.675Z,961.88
2018-11-23T18:19:06.074Z,961.84
2018-11-23T18:21:32.378Z,961.86
2018-11-23T18:23:58.695Z,961.90
2018-11-23T18:26:24.993Z,961.91
2018-11-23T18:28:51.318Z,961.88
2018-11-23T18:31:17.632Z,961.88
2018-11-23T18:33:43.946Z,961.81
2018-11-23T18:36:10.226Z,961.89
2018-11-23T18:38:36.533Z,961.87
2018-11-23T18:41:02.864Z,961.88
2018-11-23T18:43:29.183Z,961.85
2018-11-23T18:45:55.492Z,961.88
2018-11-23T18:48:21.846Z,961.88
2018-11-23T18:50:48.150Z,961.90
2018-11-23T18:53:14.461Z,961.90
2018-11-23T18:55:40.830Z,961.90
2018-11-23T18:58:07.127Z,961.87
2018-11-23T19:00:33.419Z,961.87
2018-11-23T19:02:59.736Z,961.91
2018-11-23T19:05:26.039Z,961.92
2018-11-23T19:07:52.344Z,961.82
2018-11-23T19:10:18.667Z,961.83
2018-11-23T19:12:45.044Z,961.81
2018-11-23T19:15:11.410Z,961.87
2018-11-23T19:17:37.725Z,961.87
2018-11-23T19:20:04.068Z,961.86
2018-11-23T19:22:30.360Z,961.87
2018-11-23T19:24:56.676Z,961.95
2018-11-23T19:27:22.989Z,961.89
2018-11-23T19:29:49.304Z,961.88
2018-11-23T19:32:15.665Z,961.99
2018-11-23T19:34:41.975Z,961.98
2018-11-23T19:37:08.286Z,962.00
2018-11-23T19:39:34.599Z,961.96
2018-11-23T19:42:00.896Z,961.97
2018-11-23T19:44:27.211Z,962.02
2018-11-23T19:46:53.560Z,962.01
2018-11-23T19:49:19.866Z,962.03
2018-11-23T19:51:46.165Z,962.03
2018-11-23T19:54:12.454Z,962.07
2018-11-23T19:56:38.785Z,962.03
2018-11-23T19:59:05.079Z,962.00
2018-11-23T20:01:31.427Z,962.07
2018-11-23T20:03:57.720Z,962.07
2018-11-23T20:06:24.035Z,962.06
2018-11-23T20:08:50.317Z,962.08
2018-11-23T20:11:16.602Z,962.04
2018-11-23T20:13:42.911Z,962.04
2018-11-23T20:16:09.235Z,962.01
2018-11-23T20:18:35.516Z,962.00
2018-11-23T20:21:01.836Z,962.00
2018-11-23T20:23:28.167Z,962.01
2018-11-23T20:25:54.476Z,961.99
2018-11-23T20:28:20.824Z,962.08
2018-11-23T20:30:47.161Z,962.08
2018-11-23T20:33:13.533Z,962.02
2018-11-23T20:35:39.851Z,962.04
2018-11-23T20:38:06.186Z,962.00
2018-11-23T20:40:32.465Z,962.06
2018-11-23T20:42:58.828Z,962.02
2018-11-23T20:45:25.171Z,962.05
2018-11-23T20:47:51.473Z,962.15
2018-11-23T20:50:17.764Z,962.12
2018-11-23T20:52:44.075Z,962.08
2018-11-23T20:55:10.411Z,962.14
2018-11-23T20:57:36.728Z,962.16
2018-11-23T21:00:11.921Z,962.19
2018-11-23T21:02:38.253Z,962.19
2018-11-23T21:05:04.534Z,962.21
2018-11-23T21:07:30.831Z,962.24
2018-11-23T21:09:57.147Z,962.14
2018-11-23T21:12:23.493Z,962.14
2018-11-23T21:14:49.811Z,962.15
2018-11-23T21:17:16.120Z,962.11
2018-11-23T21:19:42.473Z,962.18
2018-11-23T21:22:08.758Z,962.23
2018-11-23T21:24:35.088Z,962.15
2018-11-23T21:27:01.368Z,962.21
2018-11-23T21:29:27.751Z,962.16
2018-11-23T21:31:54.082Z,962.18
2018-11-23T21:34:20.380Z,962.12
2018-11-23T21:36:46.721Z,962.10
2018-11-23T21:39:13.675Z,962.19
2018-11-23T21:41:39.448Z,962.16
2018-11-23T21:44:05.743Z,962.06
2018-11-23T21:46:32.072Z,962.13
2018-11-23T21:48:58.386Z,962.09
2018-11-23T21:51:24.665Z,962.01
2018-11-23T21:53:50.992Z,962.08
2018-11-23T21:56:17.313Z,962.13
2018-11-23T21:58:43.681Z,962.09
2018-11-23T22:01:09.940Z,962.19
2018-11-23T22:03:36.268Z,962.22
2018-11-23T22:06:02.576Z,962.18
2018-11-23T22:08:28.896Z,962.17
2018-11-23T22:10:55.223Z,962.11
2018-11-23T22:13:21.524Z,962.13
2018-11-23T22:15:47.850Z,962.17
2018-11-23T22:18:14.173Z,962.08
2018-11-23T22:20:40.507Z,962.09
2018-11-23T22:23:06.828Z,962.09
2018-11-23T22:25:33.145Z,961.99
2018-11-23T22:27:59.447Z,962.08
2018-11-23T22:30:26.898Z,961.98
2018-11-23T22:32:53.217Z,962.03
2018-11-23T22:35:19.546Z,962.01
2018-11-23T22:37:45.880Z,961.95
2018-11-23T22:40:12.171Z,962.01
2018-11-23T22:42:38.484Z,961.97
2018-11-23T22:45:04.801Z,961.92
2018-11-23T22:47:31.148Z,961.94
2018-11-23T22:49:57.494Z,961.97
2018-11-23T22:52:23.798Z,961.93
2018-11-23T22:54:50.091Z,961.93
2018-11-23T22:57:16.384Z,961.94
2018-11-23T22:59:42.706Z,961.94
2018-11-23T23:02:09.020Z,961.94
2018-11-23T23:04:35.364Z,961.99
2018-11-23T23:07:01.684Z,962.03
2018-11-23T23:09:28.008Z,962.00
2018-11-23T23:11:54.326Z,961.96
2018-11-23T23:14:20.610Z,961.98
2018-11-23T23:16:46.918Z,961.97
2018-11-23T23:19:13.237Z,961.99
2018-11-23T23:21:39.541Z,962.03
2018-11-23T23:24:11.589Z,962.07
2018-11-23T23:26:32.189Z,961.99
2018-11-23T23:28:58.476Z,961.99
2018-11-23T23:31:24.788Z,962.04
2018-11-23T23:33:51.167Z,962.02
2018-11-23T23:36:17.463Z,962.08
2018-11-23T23:38:43.771Z,962.06
2018-11-23T23:41:10.088Z,962.05
2018-11-23T23:43:36.435Z,962.02
2018-11-23T23:46:02.736Z,962.09
2018-11-23T23:48:29.066Z,962.03
2018-11-23T23:50:55.396Z,962.11
2018-11-23T23:53:21.678Z,962.07
2018-11-23T23:55:47.988Z,962.11
2018-11-23T23:58:14.294Z,961.99
